sensor_id;sensor_type;location;lat;lon;timestamp;pressure;altitude;pressure_sealevel;temperature;humidity
740;BME280;354;42.694;23.336;2023-03-08T00:00:35;94443.03;;;6.45;100.00
740;BME280;354;42.694;23.336;2023-03-08T00:03:01;94455.69;;;6.34;100.00
740;BME280;354;42.694;23.336;2023-03-08T00:05:27;94468.34;;;6.38;100.00
740;BME280;354;42.694;23.336;2023-03-08T00:07:52;94462.75;;;6.27;100.00
740;BME280;354;42.694;23.336;2023-03-08T00:10:18;94463.75;;;6.13;100.00
740;BME280;354;42.694;23.336;2023-03-08T00:12:44;94473.00;;;6.22;100.00
740;BME280;354;42.694;23.336;2023-03-08T00:15:09;94495.50;;;6.17;100.00
740;BME280;354;42.694;23.336;2023-03-08T00:17:36;94491.88;;;6.18;100.00
740;BME280;354;42.694;23.336;2023-03-08T00:20:02;94482.81;;;6.20;100.00
740;BME280;354;42.694;23.336;2023-03-08T00:22:29;94477.00;;;6.18;100.00
740;BME280;354;42.694;23.336;2023-03-08T00:24:55;94476.19;;;6.31;100.00
740;BME280;354;42.694;23.336;2023-03-08T00:27:20;94464.16;;;5.97;100.00
740;BME280;354;42.694;23.336;2023-03-08T00:29:45;94492.06;;;6.03;100.00
740;BME280;354;42.694;23.336;2023-03-08T00:32:11;94461.31;;;5.85;100.00
740;BME280;354;42.694;23.336;2023-03-08T00:34:36;94475.38;;;5.91;100.00
740;BME280;354;42.694;23.336;2023-03-08T00:37:02;94458.09;;;5.76;100.00
740;BME280;354;42.694;23.336;2023-03-08T00:39:27;94475.75;;;5.88;100.00
740;BME280;354;42.694;23.336;2023-03-08T00:41:52;94477.19;;;5.90;100.00
740;BME280;354;42.694;23.336;2023-03-08T00:44:18;94462.50;;;5.76;100.00
740;BME280;354;42.694;23.336;2023-03-08T00:46:43;94455.09;;;5.86;100.00
740;BME280;354;42.694;23.336;2023-03-08T00:49:10;94423.41;;;5.82;100.00
740;BME280;354;42.694;23.336;2023-03-08T00:51:37;94476.63;;;5.95;100.00
740;BME280;354;42.694;23.336;2023-03-08T00:54:02;94474.97;;;5.80;100.00
740;BME280;354;42.694;23.336;2023-03-08T00:56:27;94473.41;;;6.06;100.00
740;BME280;354;42.694;23.336;2023-03-08T00:58:53;94468.56;;;5.96;100.00
740;BME280;354;42.694;23.336;2023-03-08T01:01:18;94440.84;;;5.62;100.00
740;BME280;354;42.694;23.336;2023-03-08T01:03:43;94485.00;;;5.84;100.00
740;BME280;354;42.694;23.336;2023-03-08T01:06:12;94482.41;;;5.90;100.00
740;BME280;354;42.694;23.336;2023-03-08T01:08:38;94475.81;;;6.01;100.00
740;BME280;354;42.694;23.336;2023-03-08T01:11:06;94477.81;;;6.05;100.00
740;BME280;354;42.694;23.336;2023-03-08T01:13:34;94493.28;;;5.94;100.00
740;BME280;354;42.694;23.336;2023-03-08T01:16:00;94477.97;;;5.91;100.00
740;BME280;354;42.694;23.336;2023-03-08T01:18:26;94479.44;;;6.00;100.00
740;BME280;354;42.694;23.336;2023-03-08T01:21:00;94491.66;;;5.93;100.00
740;BME280;354;42.694;23.336;2023-03-08T01:23:26;94479.59;;;5.78;100.00
740;BME280;354;42.694;23.336;2023-03-08T01:26:03;94483.97;;;5.71;100.00
740;BME280;354;42.694;23.336;2023-03-08T01:28:29;94477.56;;;5.80;100.00
740;BME280;354;42.694;23.336;2023-03-08T01:33:27;94493.22;;;5.67;100.00
740;BME280;354;42.694;23.336;2023-03-08T01:35:53;94465.72;;;5.71;100.00
740;BME280;354;42.694;23.336;2023-03-08T01:38:18;94481.41;;;5.85;100.00
740;BME280;354;42.694;23.336;2023-03-08T01:40:43;94499.84;;;5.76;100.00
740;BME280;354;42.694;23.336;2023-03-08T01:43:27;94489.81;;;5.87;100.00
740;BME280;354;42.694;23.336;2023-03-08T01:48:36;94494.22;;;5.66;100.00
740;BME280;354;42.694;23.336;2023-03-08T01:51:06;94487.63;;;5.84;100.00
740;BME280;354;42.694;23.336;2023-03-08T01:53:35;94480.59;;;5.77;100.00
740;BME280;354;42.694;23.336;2023-03-08T01:56:02;94490.41;;;5.62;100.00
740;BME280;354;42.694;23.336;2023-03-08T01:58:27;94470.28;;;5.43;100.00
740;BME280;354;42.694;23.336;2023-03-08T02:00:53;94486.78;;;5.63;100.00
740;BME280;354;42.694;23.336;2023-03-08T02:03:19;94490.19;;;5.57;100.00
740;BME280;354;42.694;23.336;2023-03-08T02:05:45;94498.19;;;5.42;100.00
740;BME280;354;42.694;23.336;2023-03-08T02:08:11;94484.13;;;5.37;100.00
740;BME280;354;42.694;23.336;2023-03-08T02:10:37;94475.56;;;5.63;100.00
740;BME280;354;42.694;23.336;2023-03-08T02:13:04;94501.44;;;5.58;100.00
740;BME280;354;42.694;23.336;2023-03-08T02:15:30;94505.78;;;5.44;100.00
740;BME280;354;42.694;23.336;2023-03-08T02:17:56;94482.38;;;5.57;100.00
740;BME280;354;42.694;23.336;2023-03-08T02:20:27;94474.53;;;5.57;100.00
740;BME280;354;42.694;23.336;2023-03-08T02:22:52;94500.19;;;5.47;100.00
740;BME280;354;42.694;23.336;2023-03-08T02:25:21;94489.19;;;5.51;100.00
740;BME280;354;42.694;23.336;2023-03-08T02:27:47;94466.06;;;5.22;100.00
740;BME280;354;42.694;23.336;2023-03-08T02:30:15;94475.13;;;5.46;100.00
740;BME280;354;42.694;23.336;2023-03-08T02:32:42;94487.94;;;5.34;100.00
740;BME280;354;42.694;23.336;2023-03-08T02:35:08;94487.50;;;5.24;100.00
740;BME280;354;42.694;23.336;2023-03-08T02:37:33;94491.72;;;5.32;100.00
740;BME280;354;42.694;23.336;2023-03-08T02:39:59;94501.13;;;5.19;100.00
740;BME280;354;42.694;23.336;2023-03-08T02:42:24;94508.16;;;5.25;100.00
740;BME280;354;42.694;23.336;2023-03-08T02:44:50;94497.34;;;5.35;100.00
740;BME280;354;42.694;23.336;2023-03-08T02:47:16;94508.94;;;5.19;100.00
740;BME280;354;42.694;23.336;2023-03-08T02:49:41;94504.75;;;5.25;100.00
740;BME280;354;42.694;23.336;2023-03-08T02:52:07;94514.16;;;5.26;100.00
740;BME280;354;42.694;23.336;2023-03-08T02:54:32;94515.38;;;5.23;100.00
740;BME280;354;42.694;23.336;2023-03-08T02:56:57;94492.56;;;5.39;100.00
740;BME280;354;42.694;23.336;2023-03-08T02:59:23;94518.59;;;5.25;100.00
740;BME280;354;42.694;23.336;2023-03-08T03:01:48;94506.53;;;5.11;100.00
740;BME280;354;42.694;23.336;2023-03-08T03:04:13;94494.69;;;5.15;100.00
740;BME280;354;42.694;23.336;2023-03-08T03:06:39;94515.72;;;5.07;100.00
740;BME280;354;42.694;23.336;2023-03-08T03:09:06;94518.13;;;5.09;100.00
740;BME280;354;42.694;23.336;2023-03-08T03:11:32;94494.66;;;5.09;100.00
740;BME280;354;42.694;23.336;2023-03-08T03:13:58;94508.69;;;5.08;100.00
740;BME280;354;42.694;23.336;2023-03-08T03:16:24;94522.09;;;5.05;100.00
740;BME280;354;42.694;23.336;2023-03-08T03:18:52;94523.47;;;4.94;100.00
740;BME280;354;42.694;23.336;2023-03-08T03:21:18;94515.72;;;5.07;100.00
740;BME280;354;42.694;23.336;2023-03-08T03:23:43;94524.00;;;4.83;100.00
740;BME280;354;42.694;23.336;2023-03-08T03:26:11;94532.00;;;4.74;100.00
740;BME280;354;42.694;23.336;2023-03-08T03:28:37;94526.50;;;4.97;100.00
740;BME280;354;42.694;23.336;2023-03-08T03:31:08;94516.34;;;4.68;100.00
740;BME280;354;42.694;23.336;2023-03-08T03:33:33;94513.97;;;4.73;100.00
740;BME280;354;42.694;23.336;2023-03-08T03:36:00;94524.47;;;4.99;100.00
740;BME280;354;42.694;23.336;2023-03-08T03:38:25;94546.06;;;4.87;100.00
740;BME280;354;42.694;23.336;2023-03-08T03:41:02;94528.38;;;4.75;100.00
740;BME280;354;42.694;23.336;2023-03-08T03:43:27;94549.22;;;4.75;100.00
740;BME280;354;42.694;23.336;2023-03-08T03:45:57;94541.06;;;4.85;100.00
740;BME280;354;42.694;23.336;2023-03-08T03:48:23;94534.50;;;4.96;100.00
740;BME280;354;42.694;23.336;2023-03-08T03:50:56;94557.63;;;4.78;100.00
740;BME280;354;42.694;23.336;2023-03-08T03:53:22;94553.09;;;4.86;100.00
740;BME280;354;42.694;23.336;2023-03-08T03:55:48;94558.63;;;4.76;100.00
740;BME280;354;42.694;23.336;2023-03-08T03:58:13;94536.47;;;4.87;100.00
740;BME280;354;42.694;23.336;2023-03-08T04:00:39;94555.47;;;4.81;100.00
740;BME280;354;42.694;23.336;2023-03-08T04:03:04;94550.31;;;4.60;100.00
740;BME280;354;42.694;23.336;2023-03-08T04:05:30;94548.19;;;4.70;100.00
740;BME280;354;42.694;23.336;2023-03-08T04:07:55;94545.78;;;4.68;100.00
740;BME280;354;42.694;23.336;2023-03-08T04:10:20;94554.72;;;4.59;100.00
740;BME280;354;42.694;23.336;2023-03-08T04:12:50;94560.94;;;4.58;100.00
740;BME280;354;42.694;23.336;2023-03-08T04:15:15;94549.97;;;4.63;100.00
740;BME280;354;42.694;23.336;2023-03-08T04:17:41;94538.59;;;4.42;100.00
740;BME280;354;42.694;23.336;2023-03-08T04:20:07;94547.78;;;4.38;100.00
740;BME280;354;42.694;23.336;2023-03-08T04:22:32;94556.31;;;4.54;100.00
740;BME280;354;42.694;23.336;2023-03-08T04:24:58;94560.66;;;4.46;100.00
740;BME280;354;42.694;23.336;2023-03-08T04:27:23;94566.00;;;4.38;100.00
740;BME280;354;42.694;23.336;2023-03-08T04:29:49;94551.84;;;4.19;100.00
740;BME280;354;42.694;23.336;2023-03-08T04:32:14;94565.44;;;4.43;100.00
740;BME280;354;42.694;23.336;2023-03-08T04:34:40;94562.75;;;4.58;100.00
740;BME280;354;42.694;23.336;2023-03-08T04:37:09;94554.22;;;4.42;100.00
740;BME280;354;42.694;23.336;2023-03-08T04:39:35;94558.88;;;4.47;100.00
740;BME280;354;42.694;23.336;2023-03-08T04:42:01;94557.03;;;4.41;100.00
740;BME280;354;42.694;23.336;2023-03-08T04:44:26;94557.25;;;4.46;100.00
740;BME280;354;42.694;23.336;2023-03-08T04:46:52;94539.59;;;4.41;100.00
740;BME280;354;42.694;23.336;2023-03-08T04:49:18;94557.09;;;4.54;100.00
740;BME280;354;42.694;23.336;2023-03-08T04:51:43;94562.75;;;4.58;100.00
740;BME280;354;42.694;23.336;2023-03-08T04:54:08;94561.47;;;4.47;100.00
740;BME280;354;42.694;23.336;2023-03-08T04:56:34;94571.88;;;4.47;100.00
740;BME280;354;42.694;23.336;2023-03-08T04:58:59;94571.88;;;4.47;100.00
740;BME280;354;42.694;23.336;2023-03-08T05:01:25;94557.88;;;4.48;100.00
740;BME280;354;42.694;23.336;2023-03-08T05:03:52;94570.84;;;4.69;100.00
740;BME280;354;42.694;23.336;2023-03-08T05:06:18;94578.66;;;5.04;100.00
740;BME280;354;42.694;23.336;2023-03-08T05:08:44;94575.03;;;5.05;100.00
740;BME280;354;42.694;23.336;2023-03-08T05:11:16;94587.09;;;5.06;100.00
740;BME280;354;42.694;23.336;2023-03-08T05:13:42;94591.28;;;5.00;100.00
740;BME280;354;42.694;23.336;2023-03-08T05:16:07;94589.47;;;5.01;100.00
740;BME280;354;42.694;23.336;2023-03-08T05:18:33;94583.38;;;4.94;100.00
740;BME280;354;42.694;23.336;2023-03-08T05:21:01;94594.91;;;5.06;100.00
740;BME280;354;42.694;23.336;2023-03-08T05:23:28;94599.09;;;5.00;100.00
740;BME280;354;42.694;23.336;2023-03-08T05:25:55;94577.69;;;5.12;100.00
740;BME280;354;42.694;23.336;2023-03-08T05:28:22;94608.88;;;5.33;100.00
740;BME280;354;42.694;23.336;2023-03-08T05:30:48;94617.81;;;5.59;100.00
740;BME280;354;42.694;23.336;2023-03-08T05:33:17;94606.25;;;5.88;100.00
740;BME280;354;42.694;23.336;2023-03-08T05:35:43;94616.75;;;5.94;100.00
740;BME280;354;42.694;23.336;2023-03-08T05:38:15;94611.63;;;5.66;100.00
740;BME280;354;42.694;23.336;2023-03-08T05:40:41;94619.84;;;5.63;100.00
740;BME280;354;42.694;23.336;2023-03-08T05:43:06;94623.81;;;5.52;100.00
740;BME280;354;42.694;23.336;2023-03-08T05:45:31;94623.00;;;5.52;100.00
740;BME280;354;42.694;23.336;2023-03-08T05:47:57;94627.75;;;5.35;100.00
740;BME280;354;42.694;23.336;2023-03-08T05:50:22;94617.59;;;5.12;100.00
740;BME280;354;42.694;23.336;2023-03-08T05:52:47;94641.31;;;5.24;100.00
740;BME280;354;42.694;23.336;2023-03-08T05:55:13;94637.50;;;5.26;100.00
740;BME280;354;42.694;23.336;2023-03-08T05:57:38;94643.25;;;5.15;100.00
740;BME280;354;42.694;23.336;2023-03-08T06:00:04;94648.16;;;5.32;100.00
740;BME280;354;42.694;23.336;2023-03-08T06:02:30;94622.53;;;5.35;100.00
740;BME280;354;42.694;23.336;2023-03-08T06:04:55;94649.91;;;5.59;100.00
740;BME280;354;42.694;23.336;2023-03-08T06:07:20;94653.38;;;5.73;100.00
740;BME280;354;42.694;23.336;2023-03-08T06:09:46;94648.41;;;5.85;100.00
740;BME280;354;42.694;23.336;2023-03-08T06:12:11;94642.28;;;5.99;100.00
740;BME280;354;42.694;23.336;2023-03-08T06:14:36;94650.72;;;6.14;100.00
740;BME280;354;42.694;23.336;2023-03-08T06:17:02;94647.50;;;6.12;100.00
740;BME280;354;42.694;23.336;2023-03-08T06:19:27;94645.06;;;6.04;100.00
740;BME280;354;42.694;23.336;2023-03-08T06:21:53;94663.41;;;6.17;100.00
740;BME280;354;42.694;23.336;2023-03-08T06:24:18;94668.25;;;6.33;100.00
740;BME280;354;42.694;23.336;2023-03-08T06:26:43;94661.22;;;6.47;100.00
740;BME280;354;42.694;23.336;2023-03-08T06:29:09;94659.44;;;6.68;100.00
740;BME280;354;42.694;23.336;2023-03-08T06:31:34;94676.13;;;6.93;100.00
740;BME280;354;42.694;23.336;2023-03-08T06:34:00;94655.41;;;7.05;100.00
740;BME280;354;42.694;23.336;2023-03-08T06:36:25;94654.19;;;7.21;100.00
740;BME280;354;42.694;23.336;2023-03-08T06:38:50;94673.25;;;7.41;100.00
740;BME280;354;42.694;23.336;2023-03-08T06:41:17;94675.84;;;7.54;100.00
740;BME280;354;42.694;23.336;2023-03-08T06:43:43;94675.59;;;7.69;100.00
740;BME280;354;42.694;23.336;2023-03-08T06:46:16;94676.53;;;7.88;100.00
740;BME280;354;42.694;23.336;2023-03-08T06:48:43;94684.25;;;8.21;100.00
740;BME280;354;42.694;23.336;2023-03-08T06:51:09;94685.97;;;8.40;100.00
740;BME280;354;42.694;23.336;2023-03-08T06:53:34;94682.72;;;8.52;100.00
740;BME280;354;42.694;23.336;2023-03-08T06:56:04;94687.47;;;8.61;100.00
740;BME280;354;42.694;23.336;2023-03-08T06:58:31;94699.34;;;8.64;100.00
740;BME280;354;42.694;23.336;2023-03-08T07:00:58;94695.66;;;8.71;100.00
740;BME280;354;42.694;23.336;2023-03-08T07:03:24;94718.16;;;8.86;100.00
740;BME280;354;42.694;23.336;2023-03-08T07:05:50;94708.66;;;8.91;100.00
740;BME280;354;42.694;23.336;2023-03-08T07:08:15;94690.88;;;8.93;100.00
740;BME280;354;42.694;23.336;2023-03-08T07:10:41;94682.41;;;8.91;100.00
740;BME280;354;42.694;23.336;2023-03-08T07:13:06;94716.59;;;9.28;100.00
740;BME280;354;42.694;23.336;2023-03-08T07:15:32;94703.75;;;8.95;100.00
740;BME280;354;42.694;23.336;2023-03-08T07:17:57;94710.94;;;9.06;100.00
740;BME280;354;42.694;23.336;2023-03-08T07:20:24;94706.38;;;9.45;100.00
740;BME280;354;42.694;23.336;2023-03-08T07:22:50;94712.69;;;9.81;100.00
740;BME280;354;42.694;23.336;2023-03-08T07:25:18;94712.03;;;10.03;100.00
740;BME280;354;42.694;23.336;2023-03-08T07:27:44;94717.53;;;10.50;100.00
740;BME280;354;42.694;23.336;2023-03-08T07:30:11;94709.88;;;10.79;100.00
740;BME280;354;42.694;23.336;2023-03-08T07:32:38;94714.84;;;10.99;100.00
740;BME280;354;42.694;23.336;2023-03-08T07:35:06;94716.47;;;11.23;100.00
740;BME280;354;42.694;23.336;2023-03-08T07:37:31;94701.72;;;11.34;100.00
740;BME280;354;42.694;23.336;2023-03-08T07:39:57;94722.22;;;11.44;100.00
740;BME280;354;42.694;23.336;2023-03-08T07:42:22;94713.03;;;11.11;100.00
740;BME280;354;42.694;23.336;2023-03-08T07:44:47;94698.28;;;11.22;100.00
740;BME280;354;42.694;23.336;2023-03-08T07:47:13;94721.31;;;11.50;100.00
740;BME280;354;42.694;23.336;2023-03-08T07:49:38;94711.22;;;11.47;100.00
740;BME280;354;42.694;23.336;2023-03-08T07:52:04;94696.19;;;11.00;100.00
740;BME280;354;42.694;23.336;2023-03-08T07:54:29;94723.63;;;11.81;100.00
740;BME280;354;42.694;23.336;2023-03-08T07:56:55;94724.84;;;11.55;100.00
740;BME280;354;42.694;23.336;2023-03-08T07:59:21;94704.53;;;12.03;100.00
740;BME280;354;42.694;23.336;2023-03-08T08:01:47;94719.69;;;12.36;100.00
740;BME280;354;42.694;23.336;2023-03-08T08:04:12;94677.84;;;12.39;99.72
740;BME280;354;42.694;23.336;2023-03-08T08:06:38;94690.47;;;12.37;98.93
740;BME280;354;42.694;23.336;2023-03-08T08:09:05;94716.09;;;12.54;98.74
740;BME280;354;42.694;23.336;2023-03-08T08:11:31;94711.69;;;12.43;97.95
740;BME280;354;42.694;23.336;2023-03-08T08:13:57;94725.75;;;12.20;98.87
740;BME280;354;42.694;23.336;2023-03-08T08:16:22;94719.34;;;11.92;100.00
740;BME280;354;42.694;23.336;2023-03-08T08:18:50;94731.59;;;11.75;100.00
740;BME280;354;42.694;23.336;2023-03-08T08:21:16;94730.91;;;11.68;100.00
740;BME280;354;42.694;23.336;2023-03-08T08:23:42;94723.00;;;11.44;100.00
740;BME280;354;42.694;23.336;2023-03-08T08:26:11;94726.00;;;11.59;100.00
740;BME280;354;42.694;23.336;2023-03-08T08:28:38;94729.88;;;11.69;100.00
740;BME280;354;42.694;23.336;2023-03-08T08:31:09;94731.81;;;11.73;100.00
740;BME280;354;42.694;23.336;2023-03-08T08:33:35;94733.22;;;11.88;100.00
740;BME280;354;42.694;23.336;2023-03-08T08:36:06;94739.81;;;12.13;100.00
740;BME280;354;42.694;23.336;2023-03-08T08:38:32;94718.94;;;12.24;99.02
740;BME280;354;42.694;23.336;2023-03-08T08:41:01;94701.34;;;12.41;97.77
740;BME280;354;42.694;23.336;2023-03-08T08:43:27;94730.53;;;12.80;96.23
740;BME280;354;42.694;23.336;2023-03-08T08:45:54;94724.91;;;12.88;95.95
740;BME280;354;42.694;23.336;2023-03-08T08:48:21;94733.25;;;13.13;95.60
740;BME280;354;42.694;23.336;2023-03-08T08:50:46;94723.72;;;13.96;91.16
740;BME280;354;42.694;23.336;2023-03-08T08:53:12;94727.72;;;14.43;88.08
740;BME280;354;42.694;23.336;2023-03-08T08:55:38;94735.47;;;14.28;86.59
740;BME280;354;42.694;23.336;2023-03-08T08:58:04;94727.34;;;14.12;86.52
740;BME280;354;42.694;23.336;2023-03-08T09:00:30;94720.72;;;14.32;85.29
740;BME280;354;42.694;23.336;2023-03-08T09:02:57;94727.13;;;14.36;84.77
740;BME280;354;42.694;23.336;2023-03-08T09:05:23;94726.41;;;14.02;84.84
740;BME280;354;42.694;23.336;2023-03-08T09:07:48;94732.94;;;14.16;84.56
740;BME280;354;42.694;23.336;2023-03-08T09:10:14;94728.50;;;14.21;84.38
740;BME280;354;42.694;23.336;2023-03-08T09:12:40;94724.41;;;14.31;83.53
740;BME280;354;42.694;23.336;2023-03-08T09:15:07;94701.41;;;13.70;85.28
740;BME280;354;42.694;23.336;2023-03-08T09:17:34;94718.53;;;13.85;85.72
740;BME280;354;42.694;23.336;2023-03-08T09:20:00;94722.34;;;13.94;85.68
740;BME280;354;42.694;23.336;2023-03-08T09:22:25;94714.53;;;13.65;85.85
740;BME280;354;42.694;23.336;2023-03-08T09:24:51;94717.25;;;13.70;85.91
740;BME280;354;42.694;23.336;2023-03-08T09:27:16;94698.69;;;14.04;86.12
740;BME280;354;42.694;23.336;2023-03-08T09:29:42;94712.44;;;14.28;83.68
740;BME280;354;42.694;23.336;2023-03-08T09:32:07;94704.91;;;14.59;82.67
740;BME280;354;42.694;23.336;2023-03-08T09:34:32;94693.94;;;15.04;80.54
740;BME280;354;42.694;23.336;2023-03-08T09:36:58;94706.84;;;15.22;78.96
740;BME280;354;42.694;23.336;2023-03-08T09:39:24;94694.38;;;14.91;78.94
740;BME280;354;42.694;23.336;2023-03-08T09:41:52;94694.63;;;14.89;79.76
740;BME280;354;42.694;23.336;2023-03-08T09:47:08;94701.38;;;14.75;78.93
740;BME280;354;42.694;23.336;2023-03-08T09:49:40;94680.81;;;14.38;80.04
740;BME280;354;42.694;23.336;2023-03-08T09:54:40;94695.56;;;13.68;83.74
740;BME280;354;42.694;23.336;2023-03-08T09:57:13;94683.47;;;13.56;85.71
740;BME280;354;42.694;23.336;2023-03-08T10:13:45;94664.34;;;12.81;88.27
740;BME280;354;42.694;23.336;2023-03-08T10:18:49;94681.09;;;13.54;86.83
740;BME280;354;42.694;23.336;2023-03-08T10:21:18;94665.66;;;13.46;86.11
740;BME280;354;42.694;23.336;2023-03-08T10:23:51;94663.84;;;13.68;85.46
740;BME280;354;42.694;23.336;2023-03-08T10:26:24;94668.81;;;13.65;84.95
740;BME280;354;42.694;23.336;2023-03-08T10:28:50;94671.84;;;13.74;84.78
740;BME280;354;42.694;23.336;2023-03-08T10:31:25;94667.78;;;14.32;83.51
740;BME280;354;42.694;23.336;2023-03-08T10:33:59;94669.03;;;14.46;81.27
740;BME280;354;42.694;23.336;2023-03-08T10:36:26;94639.50;;;14.32;81.24
740;BME280;354;42.694;23.336;2023-03-08T10:39:09;94664.09;;;14.33;80.73
740;BME280;354;42.694;23.336;2023-03-08T10:41:46;94660.47;;;14.39;80.71
740;BME280;354;42.694;23.336;2023-03-08T10:44:37;94656.75;;;14.89;79.94
740;BME280;354;42.694;23.336;2023-03-08T10:47:28;94658.03;;;15.13;78.06
740;BME280;354;42.694;23.336;2023-03-08T10:52:28;94643.09;;;15.02;77.81
740;BME280;354;42.694;23.336;2023-03-08T10:57:26;94602.34;;;15.08;77.56
740;BME280;354;42.694;23.336;2023-03-08T10:59:52;94638.16;;;15.53;76.62
740;BME280;354;42.694;23.336;2023-03-08T11:02:18;94649.75;;;15.42;75.31
740;BME280;354;42.694;23.336;2023-03-08T11:07:33;94636.75;;;15.77;73.37
740;BME280;354;42.694;23.336;2023-03-08T11:12:37;94629.78;;;15.66;71.67
740;BME280;354;42.694;23.336;2023-03-08T11:15:12;94618.94;;;15.73;71.86
740;BME280;354;42.694;23.336;2023-03-08T11:17:39;94617.06;;;15.31;72.65
740;BME280;354;42.694;23.336;2023-03-08T11:20:15;94608.78;;;15.17;73.53
740;BME280;354;42.694;23.336;2023-03-08T11:23:02;94608.19;;;14.73;74.79
740;BME280;354;42.694;23.336;2023-03-08T11:26:37;94575.84;;;14.44;75.30
740;BME280;354;42.694;23.336;2023-03-08T11:28:46;94588.75;;;14.35;75.38
740;BME280;354;42.694;23.336;2023-03-08T11:31:43;94574.66;;;14.30;76.44
740;BME280;354;42.694;23.336;2023-03-08T11:34:21;94571.88;;;14.14;74.87
740;BME280;354;42.694;23.336;2023-03-08T11:42:52;94565.88;;;14.24;74.54
740;BME280;354;42.694;23.336;2023-03-08T11:45:25;94559.69;;;14.13;75.07
740;BME280;354;42.694;23.336;2023-03-08T11:50:43;94562.19;;;13.98;75.23
740;BME280;354;42.694;23.336;2023-03-08T11:56:12;94561.28;;;14.14;74.73
740;BME280;354;42.694;23.336;2023-03-08T11:58:51;94554.63;;;14.12;72.91
740;BME280;354;42.694;23.336;2023-03-08T12:01:36;94545.84;;;14.06;73.03
740;BME280;354;42.694;23.336;2023-03-08T12:04:08;94545.47;;;14.19;72.77
740;BME280;354;42.694;23.336;2023-03-08T12:06:40;94543.88;;;14.18;68.67
740;BME280;354;42.694;23.336;2023-03-08T12:11:36;94547.88;;;14.48;67.41
740;BME280;354;42.694;23.336;2023-03-08T12:22:11;94537.88;;;14.55;65.60
740;BME280;354;42.694;23.336;2023-03-08T12:27:41;94530.22;;;14.59;64.84
740;BME280;354;42.694;23.336;2023-03-08T12:32:44;94542.03;;;15.20;63.55
740;BME280;354;42.694;23.336;2023-03-08T12:40:46;94515.38;;;16.20;59.20
740;BME280;354;42.694;23.336;2023-03-08T12:43:28;94535.53;;;16.11;59.24
740;BME280;354;42.694;23.336;2023-03-08T12:46:04;94530.56;;;16.45;58.39
740;BME280;354;42.694;23.336;2023-03-08T12:48:36;94530.84;;;16.95;57.77
740;BME280;354;42.694;23.336;2023-03-08T12:51:18;94530.56;;;17.01;57.28
740;BME280;354;42.694;23.336;2023-03-08T12:56:27;94521.16;;;17.50;56.63
740;BME280;354;42.694;23.336;2023-03-08T13:01:33;94516.16;;;17.28;55.89
740;BME280;354;42.694;23.336;2023-03-08T13:04:01;94528.66;;;17.27;54.73
740;BME280;354;42.694;23.336;2023-03-08T13:09:29;94516.69;;;17.25;53.82
740;BME280;354;42.694;23.336;2023-03-08T13:14:40;94508.53;;;16.65;55.04
740;BME280;354;42.694;23.336;2023-03-08T13:19:52;94507.97;;;16.27;59.53
740;BME280;354;42.694;23.336;2023-03-08T13:22:19;94497.88;;;16.14;58.07
740;BME280;354;42.694;23.336;2023-03-08T13:25:30;94498.06;;;15.87;56.21
740;BME280;354;42.694;23.336;2023-03-08T13:28:08;94489.81;;;15.68;57.51
740;BME280;354;42.694;23.336;2023-03-08T13:30:36;94496.91;;;15.58;58.81
740;BME280;354;42.694;23.336;2023-03-08T13:33:12;94493.47;;;15.57;58.80
740;BME280;354;42.694;23.336;2023-03-08T13:35:38;94496.09;;;15.52;59.22
740;BME280;354;42.694;23.336;2023-03-08T13:38:04;94497.69;;;15.53;58.16
740;BME280;354;42.694;23.336;2023-03-08T13:40:30;94496.88;;;15.52;59.65
740;BME280;354;42.694;23.336;2023-03-08T13:43:03;94493.69;;;15.50;59.10
740;BME280;354;42.694;23.336;2023-03-08T13:45:30;94494.25;;;15.58;61.06
740;BME280;354;42.694;23.336;2023-03-08T13:47:57;94491.56;;;15.52;57.81
740;BME280;354;42.694;23.336;2023-03-08T13:50:30;94489.19;;;15.51;58.31
740;BME280;354;42.694;23.336;2023-03-08T13:52:56;94488.41;;;15.50;57.81
740;BME280;354;42.694;23.336;2023-03-08T13:55:28;94491.06;;;15.50;57.25
740;BME280;354;42.694;23.336;2023-03-08T13:57:56;94446.66;;;15.20;57.97
740;BME280;354;42.694;23.336;2023-03-08T14:00:29;94489.69;;;15.48;60.16
740;BME280;354;42.694;23.336;2023-03-08T14:02:56;94480.69;;;15.39;57.71
740;BME280;354;42.694;23.336;2023-03-08T14:05:30;94483.56;;;15.37;56.71
740;BME280;354;42.694;23.336;2023-03-08T14:08:14;94486.00;;;15.49;56.21
740;BME280;354;42.694;23.336;2023-03-08T14:10:48;94486.53;;;15.46;56.82
740;BME280;354;42.694;23.336;2023-03-08T14:13:20;94486.00;;;15.49;57.42
740;BME280;354;42.694;23.336;2023-03-08T14:15:54;94492.69;;;15.62;57.74
740;BME280;354;42.694;23.336;2023-03-08T14:18:23;94490.53;;;15.59;57.01
740;BME280;354;42.694;23.336;2023-03-08T14:21:16;94487.88;;;15.59;57.77
740;BME280;354;42.694;23.336;2023-03-08T14:23:48;94479.91;;;15.53;59.01
740;BME280;354;42.694;23.336;2023-03-08T14:26:33;94487.03;;;15.43;58.66
740;BME280;354;42.694;23.336;2023-03-08T14:29:12;94471.91;;;15.38;59.63
740;BME280;354;42.694;23.336;2023-03-08T14:31:38;94491.69;;;15.73;59.11
740;BME280;354;42.694;23.336;2023-03-08T14:34:27;94475.56;;;15.90;58.96
740;BME280;354;42.694;23.336;2023-03-08T14:37:00;94472.09;;;15.79;58.01
740;BME280;354;42.694;23.336;2023-03-08T14:39:27;94476.06;;;15.92;59.50
740;BME280;354;42.694;23.336;2023-03-08T14:41:54;94482.47;;;16.01;58.53
740;BME280;354;42.694;23.336;2023-03-08T14:44:22;94481.41;;;16.12;58.24
740;BME280;354;42.694;23.336;2023-03-08T14:46:51;94478.25;;;16.10;57.55
740;BME280;354;42.694;23.336;2023-03-08T14:49:24;94487.22;;;16.04;58.04
740;BME280;354;42.694;23.336;2023-03-08T14:51:50;94463.88;;;15.86;59.25
740;BME280;354;42.694;23.336;2023-03-08T14:54:20;94488.75;;;15.69;58.08
740;BME280;354;42.694;23.336;2023-03-08T14:56:46;94475.69;;;15.58;58.24
740;BME280;354;42.694;23.336;2023-03-08T14:59:12;94489.72;;;15.53;58.21
740;BME280;354;42.694;23.336;2023-03-08T15:01:38;94493.97;;;15.54;58.15